Time;durP1;ratioP1;P1;durP2;ratioP2;P2;SDS_P1;SDS_P2;PMS_P1;PMS_P2;Temp;Humidity;BMP_temperature;BMP_pressure;BME280_temperature;BME280_humidity;BME280_pressure;Samples;Min_cycle;Max_cycle;Signal;HPM_P1;HPM_P2
2023/04/20 00:00:26;;;;;;;1.65;1.38;;;;;13.50;102233.00;;;;5051628;28;20565;-76
2023/04/20 00:02:54;;;;;;;3.22;1.67;;;;;13.50;102224.00;;;;5050272;28;20639;-77
2023/04/20 00:05:22;;;;;;;3.13;1.20;;;;;13.50;102229.00;;;;5048454;28;20219;-77
2023/04/20 00:07:49;;;;;;;3.05;1.35;;;;;13.50;102220.00;;;;5048156;28;20195;-77
2023/04/20 00:10:18;;;;;;;1.85;1.05;;;;;13.40;102211.00;;;;5048867;28;20301;-77
2023/04/20 00:12:45;;;;;;;2.35;1.50;;;;;13.40;102216.00;;;;5050337;28;20214;-77
2023/04/20 00:15:12;;;;;;;4.35;1.85;;;;;13.40;102213.00;;;;5048640;28;20873;-77
2023/04/20 00:17:40;;;;;;;2.85;1.17;;;;;13.40;102207.00;;;;5052741;28;20188;-77
2023/04/20 00:20:08;;;;;;;5.47;1.45;;;;;13.40;102195.00;;;;5061802;28;20227;-77
2023/04/20 00:22:35;;;;;;;2.97;1.13;;;;;13.30;102198.00;;;;5055409;28;20592;-77
2023/04/20 00:25:03;;;;;;;4.55;1.33;;;;;13.30;102192.00;;;;5068050;28;20226;-77
2023/04/20 00:27:32;;;;;;;2.85;1.55;;;;;13.30;102185.00;;;;5068096;28;20249;-77
2023/04/20 00:29:59;;;;;;;2.65;1.50;;;;;13.30;102177.00;;;;5058175;28;20580;-76
2023/04/20 00:32:27;;;;;;;1.40;1.25;;;;;13.20;102178.00;;;;5065073;28;20226;-77
2023/04/20 00:34:54;;;;;;;2.05;1.30;;;;;13.20;102169.00;;;;5056701;28;20226;-77
2023/04/20 00:37:24;;;;;;;3.97;1.52;;;;;13.20;102165.00;;;;5068462;28;20198;-77
2023/04/20 00:39:51;;;;;;;3.03;1.70;;;;;13.20;102161.00;;;;5055081;28;20200;-77
2023/04/20 00:42:19;;;;;;;1.63;1.05;;;;;13.10;102154.00;;;;5048108;28;20559;-76
2023/04/20 00:44:49;;;;;;;2.47;1.20;;;;;13.10;102155.00;;;;5048743;28;20649;-76
2023/04/20 00:47:16;;;;;;;2.03;1.50;;;;;13.10;102148.00;;;;5048648;28;20214;-76
2023/04/20 00:49:43;;;;;;;3.25;1.33;;;;;13.10;102143.00;;;;5066547;28;20565;-77
2023/04/20 00:52:11;;;;;;;2.33;1.50;;;;;13.00;102143.00;;;;5064610;28;20191;-77
2023/04/20 00:54:38;;;;;;;3.15;2.10;;;;;13.00;102134.00;;;;5056057;28;20602;-74
2023/04/20 00:57:06;;;;;;;4.10;1.98;;;;;13.00;102131.00;;;;5067710;28;20352;-73
2023/04/20 00:59:33;;;;;;;2.90;1.65;;;;;13.00;102125.00;;;;5061443;28;20199;-74
2023/04/20 01:02:02;;;;;;;2.28;1.58;;;;;13.00;102114.00;;;;5047954;28;20283;-74
2023/04/20 01:04:30;;;;;;;2.90;1.60;;;;;12.90;102108.00;;;;5058932;28;21130;-74
2023/04/20 01:06:57;;;;;;;2.58;1.50;;;;;12.90;102103.00;;;;5066093;28;20199;-73
2023/04/20 01:09:25;;;;;;;2.03;1.60;;;;;12.90;102105.00;;;;5050062;28;20199;-73
2023/04/20 01:11:52;;;;;;;2.15;1.60;;;;;12.90;102097.00;;;;5052444;28;20199;-74
2023/04/20 01:14:19;;;;;;;1.95;1.67;;;;;12.90;102091.00;;;;5055310;28;20199;-74
2023/04/20 01:16:47;;;;;;;3.10;2.08;;;;;12.90;102092.00;;;;5059827;28;20198;-75
2023/04/20 01:19:15;;;;;;;2.65;1.63;;;;;12.90;102096.00;;;;5067846;28;20297;-75
2023/04/20 01:21:43;;;;;;;2.50;1.88;;;;;13.00;102091.00;;;;5062640;28;20203;-74
2023/04/20 01:24:11;;;;;;;4.03;1.33;;;;;13.00;102084.00;;;;5056839;28;20219;-75
2023/04/20 01:26:39;;;;;;;2.63;1.75;;;;;13.00;102074.00;;;;5059794;28;20204;-75
2023/04/20 01:29:06;;;;;;;2.38;1.73;;;;;13.00;102074.00;;;;5066464;28;20198;-75
2023/04/20 01:31:33;;;;;;;1.63;1.33;;;;;13.00;102071.00;;;;5071224;28;20199;-75
2023/04/20 01:34:00;;;;;;;2.00;1.33;;;;;13.00;102060.00;;;;5070235;28;20207;-75
2023/04/20 01:36:28;;;;;;;2.40;1.70;;;;;13.00;102058.00;;;;5068229;28;20195;-75
2023/04/20 01:38:55;;;;;;;2.30;1.90;;;;;13.00;102056.00;;;;5050767;28;20196;-75
2023/04/20 01:41:24;;;;;;;2.00;1.48;;;;;13.00;102057.00;;;;5051386;28;20218;-75
2023/04/20 01:43:51;;;;;;;1.88;1.55;;;;;13.00;102049.00;;;;5051319;28;20273;-75
2023/04/20 01:46:19;;;;;;;3.10;1.70;;;;;13.00;102044.00;;;;5051478;28;20587;-75
2023/04/20 01:48:46;;;;;;;1.73;1.52;;;;;13.00;102045.00;;;;5051586;28;20761;-75
2023/04/20 01:51:13;;;;;;;2.20;1.80;;;;;13.00;102038.00;;;;5051634;28;20210;-75
2023/04/20 01:53:41;;;;;;;2.95;1.73;;;;;13.00;102035.00;;;;5051541;28;20202;-75
2023/04/20 01:56:08;;;;;;;4.40;1.80;;;;;13.00;102028.00;;;;5053017;28;20226;-75
2023/04/20 01:58:37;;;;;;;4.63;1.58;;;;;12.90;102031.00;;;;5058320;28;20203;-75
2023/04/20 02:01:04;;;;;;;2.80;1.73;;;;;12.90;102031.00;;;;5055157;28;20684;-75
2023/04/20 02:03:31;;;;;;;2.63;1.70;;;;;12.90;102032.00;;;;5056996;28;20204;-75
2023/04/20 02:05:58;;;;;;;2.33;1.60;;;;;12.90;102024.00;;;;5062164;28;20230;-75
2023/04/20 02:08:26;;;;;;;2.80;1.92;;;;;12.90;102018.00;;;;5059315;28;20213;-76
2023/04/20 02:10:53;;;;;;;4.40;1.95;;;;;12.90;102018.00;;;;5066652;28;20211;-75
2023/04/20 02:13:21;;;;;;;2.65;1.70;;;;;12.90;102011.00;;;;5064435;28;20203;-75
2023/04/20 02:15:50;;;;;;;3.88;1.85;;;;;12.90;102021.00;;;;5063706;28;20576;-75
2023/04/20 02:18:17;;;;;;;2.22;1.95;;;;;12.90;102010.00;;;;5057983;28;20214;-76
2023/04/20 02:20:45;;;;;;;4.07;1.70;;;;;13.00;102007.00;;;;5051045;28;20654;-76
2023/04/20 02:23:12;;;;;;;2.17;1.35;;;;;13.00;102009.00;;;;5050757;28;20199;-76
2023/04/20 02:25:40;;;;;;;2.58;1.40;;;;;13.10;102006.00;;;;5051548;28;20223;-75
2023/04/20 02:28:07;;;;;;;2.03;1.27;;;;;13.10;101994.00;;;;5055299;28;20218;-76
2023/04/20 02:30:34;;;;;;;4.82;2.08;;;;;13.20;101996.00;;;;5069300;28;20207;-76
2023/04/20 02:33:03;;;;;;;4.53;2.17;;;;;13.20;101989.00;;;;5049842;28;20227;-76
2023/04/20 02:35:31;;;;;;;4.28;1.40;;;;;13.20;101985.00;;;;5070753;28;20202;-75
2023/04/20 02:37:58;;;;;;;2.30;1.60;;;;;13.20;101989.00;;;;5055456;28;20206;-76
2023/04/20 02:40:25;;;;;;;2.22;1.65;;;;;13.20;101976.00;;;;5069412;28;20202;-75
2023/04/20 02:42:53;;;;;;;5.63;2.13;;;;;13.20;101973.00;;;;5054144;28;20699;-76
2023/04/20 02:45:20;;;;;;;2.75;1.90;;;;;13.30;101968.00;;;;5050938;28;20234;-76
2023/04/20 02:47:47;;;;;;;2.30;1.58;;;;;13.30;101968.00;;;;5061784;28;20195;-76
2023/04/20 02:50:16;;;;;;;2.15;1.45;;;;;13.30;101976.00;;;;5051097;28;20192;-75
2023/04/20 02:52:43;;;;;;;3.63;1.40;;;;;13.30;101973.00;;;;5069061;28;20202;-75
2023/04/20 02:55:11;;;;;;;1.73;1.38;;;;;13.30;101969.00;;;;5060277;28;20194;-76
2023/04/20 02:57:39;;;;;;;4.13;1.95;;;;;13.30;101964.00;;;;5056639;28;20230;-76
2023/04/20 03:00:08;;;;;;;3.45;1.83;;;;;13.40;101970.00;;;;5049776;28;20211;-76
2023/04/20 03:02:36;;;;;;;3.63;1.52;;;;;13.40;101961.00;;;;5055859;28;20199;-76
2023/04/20 03:05:04;;;;;;;2.97;1.73;;;;;13.50;101956.00;;;;5065295;28;20304;-75
2023/04/20 03:07:33;;;;;;;2.47;1.50;;;;;13.50;101965.00;;;;5049212;28;20191;-76
2023/04/20 03:10:00;;;;;;;2.33;1.50;;;;;13.60;101960.00;;;;5048922;28;20689;-76
2023/04/20 03:12:27;;;;;;;2.30;1.63;;;;;13.60;101957.00;;;;5065524;28;20230;-76
2023/04/20 03:14:55;;;;;;;7.20;1.73;;;;;13.70;101959.00;;;;5065515;28;20285;-76
2023/04/20 03:17:22;;;;;;;4.63;1.77;;;;;13.70;101948.00;;;;5068246;28;20279;-75
2023/04/20 03:19:49;;;;;;;1.85;1.48;;;;;13.70;101949.00;;;;5056803;28;20371;-76
2023/04/20 03:22:18;;;;;;;3.03;1.58;;;;;13.80;101953.00;;;;5058804;28;20971;-75
2023/04/20 03:24:47;;;;;;;2.85;1.90;;;;;13.80;101945.00;;;;5055881;28;20219;-75
2023/04/20 03:27:14;;;;;;;2.17;1.77;;;;;13.90;101940.00;;;;5049679;28;20657;-75
2023/04/20 03:29:42;;;;;;;2.35;1.65;;;;;13.90;101935.00;;;;5054756;28;20197;-76
2023/04/20 03:32:09;;;;;;;3.00;1.67;;;;;14.00;101940.00;;;;5048369;28;20231;-75
2023/04/20 03:34:36;;;;;;;3.90;1.83;;;;;14.00;101937.00;;;;5049918;28;20214;-75
2023/04/20 03:37:03;;;;;;;3.47;1.80;;;;;14.00;101933.00;;;;5049787;28;20210;-75
2023/04/20 03:39:31;;;;;;;3.50;1.63;;;;;14.10;101928.00;;;;5050333;28;20227;-75
2023/04/20 03:41:59;;;;;;;3.83;1.83;;;;;14.10;101934.00;;;;5055009;28;20280;-75
2023/04/20 03:44:27;;;;;;;2.08;1.55;;;;;14.10;101924.00;;;;5062681;28;20199;-74
2023/04/20 03:46:54;;;;;;;2.70;1.60;;;;;14.20;101918.00;;;;5057899;28;20195;-75
2023/04/20 03:49:24;;;;;;;2.60;1.45;;;;;14.20;101921.00;;;;5063763;28;20691;-75
2023/04/20 03:51:52;;;;;;;2.10;1.50;;;;;14.20;101921.00;;;;5060816;28;20199;-75
2023/04/20 03:54:19;;;;;;;3.53;1.30;;;;;14.30;101923.00;;;;5057568;28;20707;-75
2023/04/20 03:56:48;;;;;;;2.28;1.65;;;;;14.30;101914.00;;;;5049154;28;20196;-76
2023/04/20 03:59:17;;;;;;;3.88;2.45;;;;;14.30;101916.00;;;;5048297;28;20249;-75
2023/04/20 04:01:44;;;;;;;2.63;1.80;;;;;14.30;101911.00;;;;5048868;28;20195;-75
2023/04/20 04:04:11;;;;;;;2.42;1.55;;;;;14.40;101908.00;;;;5059733;28;20202;-76
2023/04/20 04:06:39;;;;;;;2.10;1.65;;;;;14.40;101906.00;;;;5067817;28;20234;-75
2023/04/20 04:09:06;;;;;;;2.25;1.60;;;;;14.40;101902.00;;;;5048246;28;20191;-75
2023/04/20 04:11:33;;;;;;;3.95;1.75;;;;;14.40;101897.00;;;;5065626;28;20217;-75
2023/04/20 04:14:03;;;;;;;1.88;1.30;;;;;14.50;101899.00;;;;5064971;28;20199;-76
2023/04/20 04:16:32;;;;;;;3.55;1.65;;;;;14.40;101892.00;;;;5048798;28;20196;-76
2023/04/20 04:18:59;;;;;;;1.92;1.50;;;;;14.50;101895.00;;;;5052997;28;20246;-76
2023/04/20 04:21:27;;;;;;;3.97;1.92;;;;;14.50;101877.00;;;;5050959;28;20200;-76
2023/04/20 04:23:55;;;;;;;2.40;1.42;;;;;14.50;101885.00;;;;5051935;28;20223;-75
2023/04/20 04:26:23;;;;;;;3.30;1.45;;;;;14.50;101888.00;;;;5052480;28;20258;-76
2023/04/20 04:28:50;;;;;;;1.67;1.42;;;;;14.60;101870.00;;;;5048672;28;20204;-76
2023/04/20 04:31:20;;;;;;;4.03;1.65;;;;;14.60;101872.00;;;;5047188;28;20588;-75
2023/04/20 04:33:48;;;;;;;2.83;1.55;;;;;14.60;101863.00;;;;5061215;28;20201;-76
2023/04/20 04:36:16;;;;;;;6.18;1.25;;;;;14.60;101862.00;;;;5068269;28;20195;-76
2023/04/20 04:38:44;;;;;;;2.08;1.25;;;;;14.60;101864.00;;;;5055826;28;20260;-76
2023/04/20 04:41:12;;;;;;;2.88;1.73;;;;;14.60;101846.00;;;;5050045;28;20257;-75
2023/04/20 04:43:39;;;;;;;2.60;1.52;;;;;14.70;101845.00;;;;5062914;28;20231;-75
2023/04/20 04:46:08;;;;;;;2.55;1.40;;;;;14.70;101848.00;;;;5059511;28;20234;-75
2023/04/20 04:48:36;;;;;;;1.90;1.30;;;;;14.70;101843.00;;;;5057570;28;20245;-76
2023/04/20 04:51:04;;;;;;;5.00;2.08;;;;;14.70;101845.00;;;;5050034;28;20208;-76
2023/04/20 04:53:32;;;;;;;2.38;1.40;;;;;14.70;101843.00;;;;5052562;28;20637;-76
2023/04/20 04:55:59;;;;;;;2.40;1.70;;;;;14.70;101838.00;;;;5051156;28;20210;-76
2023/04/20 04:58:27;;;;;;;2.95;1.40;;;;;14.70;101853.00;;;;5056734;28;20191;-75
2023/04/20 05:00:54;;;;;;;5.55;1.58;;;;;14.70;101842.00;;;;5065457;28;20211;-76
2023/04/20 05:03:21;;;;;;;2.08;1.40;;;;;14.70;101844.00;;;;5070171;28;20191;-76
2023/04/20 05:05:49;;;;;;;3.22;1.50;;;;;14.80;101836.00;;;;5069592;28;20215;-76
2023/04/20 05:08:17;;;;;;;2.70;1.58;;;;;14.70;101840.00;;;;5068207;28;20209;-76
2023/04/20 05:10:45;;;;;;;3.08;1.20;;;;;14.70;101848.00;;;;5071846;28;20205;-76
2023/04/20 05:13:12;;;;;;;3.38;1.42;;;;;14.70;101845.00;;;;5057541;28;20202;-75
2023/04/20 05:15:39;;;;;;;2.13;1.50;;;;;14.70;101841.00;;;;5060579;28;20210;-76
2023/04/20 05:18:07;;;;;;;2.60;1.85;;;;;14.70;101842.00;;;;5050765;28;20200;-76
2023/04/20 05:20:34;;;;;;;1.90;1.27;;;;;14.70;101830.00;;;;5055589;28;20200;-76
2023/04/20 05:23:01;;;;;;;2.80;1.40;;;;;14.70;101842.00;;;;5051094;28;20196;-76
2023/04/20 05:25:31;;;;;;;7.40;1.50;;;;;14.70;101848.00;;;;5050559;28;20218;-76
2023/04/20 05:27:59;;;;;;;3.05;1.67;;;;;14.70;101853.00;;;;5059458;28;20282;-76
2023/04/20 05:30:26;;;;;;;2.17;1.40;;;;;14.70;101850.00;;;;5056881;28;21077;-76
2023/04/20 05:32:53;;;;;;;3.38;1.33;;;;;14.70;101852.00;;;;5065142;28;20313;-76
2023/04/20 05:35:21;;;;;;;3.40;1.33;;;;;14.70;101836.00;;;;5055699;28;20416;-77
2023/04/20 05:37:48;;;;;;;3.30;1.63;;;;;14.70;101827.00;;;;5056445;28;20549;-76
2023/04/20 05:40:16;;;;;;;1.50;1.17;;;;;14.70;101827.00;;;;5050720;28;20204;-76
2023/04/20 05:42:44;;;;;;;3.28;1.73;;;;;14.70;101834.00;;;;5065718;28;20222;-76
2023/04/20 05:45:12;;;;;;;2.92;1.23;;;;;14.70;101836.00;;;;5056576;28;20203;-76
2023/04/20 05:47:39;;;;;;;2.90;1.60;;;;;14.70;101838.00;;;;5056761;28;20666;-74
2023/04/20 05:50:08;;;;;;;3.50;1.40;;;;;14.80;101838.00;;;;5051016;28;20195;-75
2023/04/20 05:52:35;;;;;;;2.00;1.23;;;;;14.80;101841.00;;;;5065674;28;20562;-76
2023/04/20 05:55:03;;;;;;;2.55;1.40;;;;;14.80;101841.00;;;;5070151;28;20207;-76
2023/04/20 05:57:30;;;;;;;2.92;1.70;;;;;14.80;101829.00;;;;5066928;28;20203;-76
2023/04/20 05:59:59;;;;;;;2.88;1.45;;;;;14.80;101834.00;;;;5051154;28;20283;-76
2023/04/20 06:02:26;;;;;;;4.32;2.17;;;;;14.80;101833.00;;;;5069530;28;20294;-77
2023/04/20 06:04:54;;;;;;;2.75;1.30;;;;;14.80;101836.00;;;;5051007;28;20196;-76
2023/04/20 06:07:21;;;;;;;1.83;1.33;;;;;14.80;101833.00;;;;5063488;28;20234;-75
2023/04/20 06:09:48;;;;;;;3.13;1.50;;;;;14.90;101831.00;;;;5070835;28;20203;-76
2023/04/20 06:12:15;;;;;;;4.10;1.50;;;;;14.90;101818.00;;;;5058939;28;20206;-75
2023/04/20 06:14:43;;;;;;;2.55;1.63;;;;;14.90;101818.00;;;;5050312;28;20287;-76
2023/04/20 06:17:11;;;;;;;2.47;1.50;;;;;14.90;101800.00;;;;5049034;28;20215;-76
2023/04/20 06:19:39;;;;;;;3.17;1.58;;;;;14.90;101815.00;;;;5050006;28;20227;-76
2023/04/20 06:22:07;;;;;;;1.85;1.40;;;;;14.90;101811.00;;;;5051733;28;20203;-76
2023/04/20 06:24:34;;;;;;;2.72;1.65;;;;;15.00;101821.00;;;;5068954;28;20211;-76
2023/04/20 06:27:02;;;;;;;2.38;1.60;;;;;15.00;101809.00;;;;5069235;28;20226;-76
2023/04/20 06:29:30;;;;;;;3.63;1.70;;;;;15.00;101808.00;;;;5068969;28;20206;-76
2023/04/20 06:31:57;;;;;;;3.10;1.63;;;;;15.00;101807.00;;;;5069465;28;20242;-76
2023/04/20 06:34:25;;;;;;;5.47;1.75;;;;;15.10;101813.00;;;;5069872;28;20199;-76
2023/04/20 06:36:53;;;;;;;3.67;1.80;;;;;15.10;101811.00;;;;5063141;28;20229;-76
2023/04/20 06:39:20;;;;;;;3.88;2.03;;;;;15.10;101806.00;;;;5049356;28;20203;-76
2023/04/20 06:41:47;;;;;;;3.25;1.70;;;;;15.10;101805.00;;;;5062557;28;20206;-76
2023/04/20 06:44:15;;;;;;;3.15;2.08;;;;;15.10;101802.00;;;;5049971;28;21245;-76
2023/04/20 06:46:42;;;;;;;2.50;1.73;;;;;15.20;101807.00;;;;5056146;28;20708;-76
2023/04/20 06:49:10;;;;;;;2.15;1.65;;;;;15.20;101803.00;;;;5063074;28;20502;-76
2023/04/20 06:51:39;;;;;;;2.97;1.58;;;;;15.20;101797.00;;;;5051979;28;20202;-76
2023/04/20 06:54:07;;;;;;;4.30;1.58;;;;;15.30;101797.00;;;;5067618;28;20199;-76
2023/04/20 06:56:34;;;;;;;1.90;1.40;;;;;15.40;101806.00;;;;5067025;28;20571;-78
2023/04/20 06:59:01;;;;;;;2.75;2.00;;;;;15.40;101803.00;;;;5064597;28;20203;-77
2023/04/20 07:01:29;;;;;;;3.05;1.58;;;;;15.40;101787.00;;;;5065745;28;20210;-78
2023/04/20 07:03:56;;;;;;;2.70;1.90;;;;;15.50;101795.00;;;;5055565;28;20223;-78
2023/04/20 07:06:26;;;;;;;3.63;2.05;;;;;15.50;101792.00;;;;5060963;28;20709;-75
2023/04/20 07:08:54;;;;;;;1.98;1.77;;;;;15.60;101795.00;;;;5057290;28;20204;-76
2023/04/20 07:11:23;;;;;;;2.15;1.73;;;;;15.60;101794.00;;;;5061465;28;20209;-77
2023/04/20 07:13:50;;;;;;;4.03;1.98;;;;;15.60;101795.00;;;;5059036;28;20685;-77
2023/04/20 07:16:18;;;;;;;2.58;1.80;;;;;15.70;101786.00;;;;5061418;28;20551;-76
2023/04/20 07:18:45;;;;;;;2.80;1.80;;;;;15.70;101788.00;;;;5057844;28;20210;-76
2023/04/20 07:21:13;;;;;;;2.42;1.63;;;;;15.70;101791.00;;;;5058627;28;20198;-76
2023/04/20 07:23:41;;;;;;;2.20;1.83;;;;;15.70;101800.00;;;;5058639;28;20314;-76
2023/04/20 07:26:10;;;;;;;4.80;1.80;;;;;15.70;101796.00;;;;5053267;28;20581;-75
2023/04/20 07:28:37;;;;;;;3.85;1.60;;;;;15.80;101796.00;;;;5049140;28;20862;-76
2023/04/20 07:31:05;;;;;;;4.60;2.05;;;;;15.80;101809.00;;;;5049045;28;20218;-76
2023/04/20 07:33:34;;;;;;;3.75;1.60;;;;;15.80;101810.00;;;;5051377;28;20635;-76
2023/04/20 07:36:01;;;;;;;1.90;1.55;;;;;15.80;101813.00;;;;5050943;28;20249;-76
2023/04/20 07:38:29;;;;;;;4.80;2.00;;;;;15.80;101816.00;;;;5061792;28;20590;-77
2023/04/20 07:40:56;;;;;;;3.00;1.83;;;;;15.80;101810.00;;;;5056896;28;20204;-76
2023/04/20 07:43:25;;;;;;;5.78;1.60;;;;;15.80;101819.00;;;;5048919;28;20540;-76
2023/04/20 07:45:52;;;;;;;3.28;2.10;;;;;15.80;101811.00;;;;5050570;28;20195;-76
2023/04/20 07:48:19;;;;;;;3.30;1.83;;;;;15.80;101821.00;;;;5049189;28;20206;-77
2023/04/20 07:50:47;;;;;;;3.45;1.70;;;;;15.70;101823.00;;;;5051065;28;20196;-78
2023/04/20 07:53:14;;;;;;;2.50;1.45;;;;;15.70;101813.00;;;;5060982;28;20680;-77
2023/04/20 07:55:41;;;;;;;5.15;2.50;;;;;15.60;101822.00;;;;5063235;28;20211;-76
2023/04/20 07:58:08;;;;;;;1.60;1.23;;;;;15.60;101819.00;;;;5050473;28;20672;-76
2023/04/20 08:00:37;;;;;;;3.05;1.80;;;;;15.50;101819.00;;;;5062354;28;20199;-76
2023/04/20 08:03:05;;;;;;;2.95;1.77;;;;;15.50;101820.00;;;;5047745;28;20199;-77
2023/04/20 08:05:32;;;;;;;2.42;1.80;;;;;15.50;101813.00;;;;5052825;28;20203;-76
2023/04/20 08:08:00;;;;;;;3.08;1.75;;;;;15.50;101814.00;;;;5053455;28;20234;-77
2023/04/20 08:10:27;;;;;;;2.70;2.08;;;;;15.50;101809.00;;;;5048124;28;20204;-77
2023/04/20 08:12:54;;;;;;;2.05;1.63;;;;;15.40;101807.00;;;;5048638;28;20199;-77
2023/04/20 08:15:22;;;;;;;2.83;1.85;;;;;15.40;101799.00;;;;5051673;28;20222;-77
2023/04/20 08:17:51;;;;;;;2.70;1.60;;;;;15.40;101800.00;;;;5048557;28;20200;-76
2023/04/20 08:20:19;;;;;;;2.33;1.73;;;;;15.50;101807.00;;;;5047968;28;20269;-77
2023/04/20 08:22:46;;;;;;;3.15;2.00;;;;;15.60;101797.00;;;;5060871;28;20191;-78
2023/04/20 08:25:13;;;;;;;3.72;1.70;;;;;15.70;101793.00;;;;5068380;28;20260;-77
2023/04/20 08:27:41;;;;;;;2.95;1.73;;;;;15.70;101792.00;;;;5054308;28;20228;-77
2023/04/20 08:30:09;;;;;;;2.05;1.40;;;;;15.80;101792.00;;;;5062294;28;20199;-78
2023/04/20 08:32:36;;;;;;;3.13;1.98;;;;;16.00;101774.00;;;;5072089;28;20234;-78
2023/04/20 08:35:06;;;;;;;3.28;1.98;;;;;16.00;101780.00;;;;5070793;28;20202;-78
2023/04/20 08:37:33;;;;;;;2.90;2.40;;;;;16.10;101783.00;;;;5066539;28;20676;-78
2023/04/20 08:40:00;;;;;;;3.22;1.83;;;;;16.20;101779.00;;;;5066011;28;20199;-77
2023/04/20 08:42:28;;;;;;;3.15;1.70;;;;;16.30;101788.00;;;;5052501;28;20187;-78
2023/04/20 08:44:55;;;;;;;2.72;2.00;;;;;16.30;101788.00;;;;5051684;28;20207;-78
2023/04/20 08:47:23;;;;;;;2.03;1.48;;;;;16.30;101781.00;;;;5053900;28;20234;-78
2023/04/20 08:49:54;;;;;;;2.38;1.70;;;;;16.30;101787.00;;;;5070345;28;20199;-77
2023/04/20 08:52:23;;;;;;;2.85;1.67;;;;;16.30;101788.00;;;;5056583;28;20200;-78
2023/04/20 08:54:50;;;;;;;2.20;1.77;;;;;16.40;101784.00;;;;5051856;28;20215;-78
2023/04/20 08:57:17;;;;;;;2.55;1.88;;;;;16.40;101785.00;;;;5051947;28;21106;-78
2023/04/20 08:59:45;;;;;;;3.70;2.00;;;;;16.40;101786.00;;;;5052259;28;20192;-77
2023/04/20 09:02:13;;;;;;;2.47;2.00;;;;;16.40;101777.00;;;;5052001;28;20716;-77
2023/04/20 09:04:41;;;;;;;2.20;1.88;;;;;16.30;101767.00;;;;5051089;28;20278;-77
2023/04/20 09:07:18;;;;;;;2.80;2.40;;;;;16.20;101769.00;;;;5052970;28;20223;-78
2023/04/20 09:09:56;;;;;;;3.42;2.40;;;;;16.20;101765.00;;;;5051884;28;20198;-78
2023/04/20 09:12:23;;;;;;;3.55;2.05;;;;;16.30;101763.00;;;;5052581;28;20204;-77
2023/04/20 09:14:51;;;;;;;3.40;2.53;;;;;16.30;101766.00;;;;5052259;28;20568;-77
2023/04/20 09:17:30;;;;;;;6.35;2.40;;;;;16.40;101772.00;;;;5053819;28;20199;-77
2023/04/20 09:19:57;;;;;;;2.75;1.83;;;;;16.40;101762.00;;;;5051038;28;20215;-78
2023/04/20 09:22:31;;;;;;;4.50;2.33;;;;;16.30;101765.00;;;;5070612;28;20206;-78
2023/04/20 09:25:00;;;;;;;3.38;2.03;;;;;16.40;101770.00;;;;5070779;28;20202;-78
2023/04/20 09:27:28;;;;;;;3.72;2.40;;;;;16.40;101773.00;;;;5056413;28;20592;-77
2023/04/20 09:29:59;;;;;;;7.32;2.22;;;;;16.40;101762.00;;;;5051816;28;20200;-78
2023/04/20 09:32:28;;;;;;;3.35;2.60;;;;;16.40;101773.00;;;;5051727;28;20231;-78
2023/04/20 09:34:55;;;;;;;3.10;2.38;;;;;16.50;101767.00;;;;5052516;28;20195;-78
2023/04/20 09:37:22;;;;;;;3.72;2.53;;;;;16.50;101766.00;;;;5068500;28;20209;-78
2023/04/20 09:39:50;;;;;;;3.78;2.70;;;;;16.60;101767.00;;;;5066805;28;20199;-78
2023/04/20 09:42:20;;;;;;;2.97;2.42;;;;;16.60;101751.00;;;;5058685;28;20231;-78
2023/04/20 09:44:48;;;;;;;2.33;2.13;;;;;16.70;101752.00;;;;5050945;28;20215;-78
2023/04/20 09:47:17;;;;;;;6.70;2.70;;;;;16.80;101749.00;;;;5053767;28;20265;-78
2023/04/20 09:49:46;;;;;;;5.60;2.22;;;;;16.90;101746.00;;;;5053282;28;20200;-78
2023/04/20 09:52:16;;;;;;;2.85;2.22;;;;;17.00;101752.00;;;;5059362;28;20241;-78
2023/04/20 09:54:44;;;;;;;4.55;2.58;;;;;17.10;101753.00;;;;5051563;28;20191;-78
2023/04/20 09:57:13;;;;;;;2.53;2.30;;;;;17.10;101745.00;;;;5053455;28;20245;-78
2023/04/20 09:59:44;;;;;;;2.85;2.35;;;;;17.30;101745.00;;;;5070882;28;20195;-78
2023/04/20 10:02:12;;;;;;;3.40;2.35;;;;;17.40;101736.00;;;;5059266;28;20207;-78
2023/04/20 10:04:50;;;;;;;3.42;2.47;;;;;17.50;101741.00;;;;5052815;28;20195;-78
2023/04/20 10:07:25;;;;;;;3.83;2.65;;;;;17.50;101742.00;;;;5051173;28;20231;-78
2023/04/20 10:10:07;;;;;;;5.03;2.95;;;;;17.60;101735.00;;;;5051457;28;20272;-78
2023/04/20 10:12:46;;;;;;;2.83;2.28;;;;;17.70;101728.00;;;;5050406;28;20203;-78
2023/04/20 10:15:15;;;;;;;9.73;3.17;;;;;17.80;101725.00;;;;5050706;28;20640;-78
2023/04/20 10:17:43;;;;;;;4.65;2.67;;;;;17.90;101727.00;;;;5052956;28;20294;-78
2023/04/20 10:20:20;;;;;;;4.40;2.80;;;;;17.90;101728.00;;;;5050271;28;20216;-78
2023/04/20 10:22:47;;;;;;;2.88;2.42;;;;;18.00;101730.00;;;;5050430;28;20249;-78
2023/04/20 10:25:18;;;;;;;4.32;2.92;;;;;18.00;101741.00;;;;5053580;28;20199;-79
2023/04/20 10:27:54;;;;;;;2.80;2.08;;;;;18.00;101724.00;;;;5052268;28;20219;-78
2023/04/20 10:30:24;;;;;;;2.85;2.25;;;;;18.00;101716.00;;;;5060113;28;20221;-78
2023/04/20 10:33:02;;;;;;;2.78;2.20;;;;;18.00;101718.00;;;;5065179;28;20250;-78
2023/04/20 10:35:29;;;;;;;3.42;2.35;;;;;18.10;101722.00;;;;5064578;28;20198;-79
2023/04/20 10:37:57;;;;;;;2.53;2.22;;;;;18.10;101733.00;;;;5064566;28;20200;-78
2023/04/20 10:40:26;;;;;;;2.88;2.53;;;;;18.00;101730.00;;;;5067388;28;20214;-79
2023/04/20 10:42:54;;;;;;;2.67;2.30;;;;;18.00;101725.00;;;;5066783;28;20214;-78
2023/04/20 10:45:35;;;;;;;2.40;2.20;;;;;17.90;101726.00;;;;5049236;28;20207;-78
2023/04/20 10:48:09;;;;;;;3.08;2.33;;;;;17.90;101721.00;;;;5048773;28;20225;-78
2023/04/20 10:50:36;;;;;;;4.82;3.13;;;;;17.90;101712.00;;;;5065148;28;20199;-78
2023/04/20 10:53:06;;;;;;;3.75;2.83;;;;;17.90;101724.00;;;;5048181;28;20218;-78
2023/04/20 10:55:33;;;;;;;2.58;2.25;;;;;18.00;101708.00;;;;5049931;28;20242;-78
2023/04/20 10:58:01;;;;;;;3.63;2.80;;;;;18.00;101700.00;;;;5049355;28;20187;-78
2023/04/20 11:00:30;;;;;;;3.15;2.80;;;;;18.00;101706.00;;;;5049681;28;20195;-78
2023/04/20 11:02:57;;;;;;;4.68;2.60;;;;;18.10;101706.00;;;;5052192;28;20252;-78
2023/04/20 11:05:26;;;;;;;3.72;2.80;;;;;18.10;101697.00;;;;5067885;28;20199;-78
2023/04/20 11:07:55;;;;;;;3.08;2.78;;;;;18.10;101684.00;;;;5058415;28;20665;-78
2023/04/20 11:10:24;;;;;;;3.75;2.40;;;;;18.30;101681.00;;;;5049556;28;20202;-78
2023/04/20 11:12:52;;;;;;;2.97;2.65;;;;;18.40;101684.00;;;;5049513;28;20207;-78
2023/04/20 11:15:19;;;;;;;3.33;2.65;;;;;18.50;101690.00;;;;5048914;28;20214;-78
2023/04/20 11:17:48;;;;;;;2.85;2.53;;;;;18.50;101683.00;;;;5051677;28;20257;-78
2023/04/20 11:20:17;;;;;;;3.22;2.20;;;;;18.60;101686.00;;;;5067990;28;20230;-78
2023/04/20 11:22:44;;;;;;;2.63;2.28;;;;;18.70;101680.00;;;;5049690;28;20288;-78
2023/04/20 11:25:12;;;;;;;3.53;2.65;;;;;18.80;101689.00;;;;5049565;28;20206;-78
2023/04/20 11:27:41;;;;;;;6.20;2.75;;;;;18.80;101684.00;;;;5054704;28;20237;-78
2023/04/20 11:30:09;;;;;;;3.40;2.17;;;;;18.80;101677.00;;;;5062670;28;20213;-77
2023/04/20 11:32:37;;;;;;;2.85;2.00;;;;;18.80;101682.00;;;;5053407;28;20235;-78
2023/04/20 11:35:09;;;;;;;2.83;2.30;;;;;18.80;101673.00;;;;5050600;28;20205;-79
2023/04/20 11:37:47;;;;;;;2.20;2.00;;;;;18.80;101677.00;;;;5068777;28;20692;-79
2023/04/20 11:40:15;;;;;;;2.83;1.98;;;;;18.90;101676.00;;;;5055062;28;20203;-78
2023/04/20 11:42:42;;;;;;;2.42;2.22;;;;;18.80;101676.00;;;;5055592;28;20192;-78
2023/04/20 11:45:11;;;;;;;2.83;2.20;;;;;18.80;101673.00;;;;5051908;28;20661;-78
2023/04/20 11:47:39;;;;;;;2.38;1.88;;;;;18.80;101676.00;;;;5059694;28;20223;-78
2023/04/20 11:50:09;;;;;;;2.58;2.38;;;;;18.80;101664.00;;;;5059995;28;20190;-77
2023/04/20 11:52:36;;;;;;;2.83;2.20;;;;;18.90;101669.00;;;;5061079;28;20203;-78
2023/04/20 11:55:04;;;;;;;2.72;2.05;;;;;18.90;101662.00;;;;5054258;28;20195;-78
2023/04/20 11:57:31;;;;;;;3.20;2.17;;;;;18.90;101664.00;;;;5061093;28;20196;-78
2023/04/20 11:59:59;;;;;;;2.13;1.92;;;;;19.00;101666.00;;;;5053344;28;20217;-78
2023/04/20 12:02:27;;;;;;;2.95;2.03;;;;;18.90;101668.00;;;;5060577;28;20191;-78
2023/04/20 12:04:54;;;;;;;4.68;2.40;;;;;18.90;101674.00;;;;5059769;28;20199;-78
2023/04/20 12:07:23;;;;;;;2.08;1.60;;;;;18.80;101667.00;;;;5059179;28;20675;-78
2023/04/20 12:09:50;;;;;;;2.70;1.90;;;;;18.70;101661.00;;;;5065684;28;20214;-78
2023/04/20 12:12:18;;;;;;;2.58;1.92;;;;;18.70;101683.00;;;;5049651;28;20200;-78